createdAt,value
2022-12-11T00:01:58.286Z,10.68
2022-12-11T00:04:31.307Z,8.93
2022-12-11T00:07:04.324Z,9.93
2022-12-11T00:09:37.670Z,9.35
2022-12-11T00:12:11.858Z,9.32
2022-12-11T00:14:44.683Z,9.13
2022-12-11T00:17:17.483Z,9.52
2022-12-11T00:19:50.365Z,9.85
2022-12-11T00:22:23.193Z,9.35
2022-12-11T00:24:56.050Z,9.10
2022-12-11T00:27:30.211Z,9.60
2022-12-11T00:30:03.060Z,10.18
2022-12-11T00:32:37.714Z,9.60
2022-12-11T00:35:11.368Z,9.43
2022-12-11T00:37:44.402Z,10.05
2022-12-11T00:40:17.438Z,9.48
2022-12-11T00:42:51.650Z,10.40
2022-12-11T00:45:24.417Z,8.98
2022-12-11T00:47:57.303Z,9.55
2022-12-11T00:50:30.189Z,9.52
2022-12-11T00:53:03.245Z,10.07
2022-12-11T00:55:38.892Z,10.10
2022-12-11T00:58:13.917Z,8.55
2022-12-11T01:00:48.376Z,9.43
2022-12-11T01:03:21.314Z,10.05
2022-12-11T01:05:55.489Z,9.85
2022-12-11T01:08:28.416Z,10.20
2022-12-11T01:11:05.427Z,10.57
2022-12-11T01:13:40.536Z,10.23
2022-12-11T01:16:15.890Z,10.98
2022-12-11T01:18:48.952Z,10.82
2022-12-11T01:21:22.127Z,10.85
2022-12-11T01:23:55.011Z,12.15
2022-12-11T01:26:27.879Z,11.23
2022-12-11T01:29:02.037Z,11.65
2022-12-11T01:31:34.994Z,11.32
2022-12-11T01:34:08.373Z,11.30
2022-12-11T01:36:41.309Z,11.10
2022-12-11T01:39:14.212Z,11.40
2022-12-11T01:41:47.220Z,11.80
2022-12-11T01:44:57.313Z,12.07
2022-12-11T01:47:31.586Z,10.93
2022-12-11T01:50:05.030Z,11.15
2022-12-11T01:52:38.278Z,11.25
2022-12-11T01:55:12.153Z,11.10
2022-12-11T01:57:49.781Z,11.00
2022-12-11T02:00:23.406Z,10.52
2022-12-11T02:02:57.639Z,10.70
2022-12-11T02:05:30.508Z,9.48
2022-12-11T02:08:04.536Z,9.63
2022-12-11T02:10:50.449Z,9.18
2022-12-11T02:13:33.672Z,8.75
2022-12-11T02:16:15.188Z,8.57
2022-12-11T02:19:01.917Z,7.30
2022-12-11T02:21:41.643Z,7.72
2022-12-11T02:24:28.133Z,7.70
2022-12-11T02:27:28.264Z,7.68
2022-12-11T02:30:05.249Z,7.35
2022-12-11T02:32:42.437Z,11.15
2022-12-11T02:35:20.549Z,10.88
2022-12-11T02:38:01.064Z,10.07
2022-12-11T02:40:38.591Z,10.75
2022-12-11T02:43:14.151Z,10.02
2022-12-11T02:45:52.190Z,10.43
2022-12-11T02:48:25.654Z,10.43
2022-12-11T02:51:00.757Z,10.15
2022-12-11T02:53:40.222Z,10.45
2022-12-11T02:56:20.510Z,9.07
2022-12-11T02:59:00.338Z,9.23
2022-12-11T03:01:34.728Z,10.35
2022-12-11T03:04:07.678Z,9.40
2022-12-11T03:06:45.390Z,9.38
2022-12-11T03:09:19.062Z,9.02
2022-12-11T03:11:53.327Z,8.45
2022-12-11T03:14:26.426Z,9.23
2022-12-11T03:17:09.373Z,9.25
2022-12-11T03:19:48.957Z,9.00
2022-12-11T03:22:27.344Z,9.65
2022-12-11T03:25:03.925Z,10.02
2022-12-11T03:27:43.963Z,9.00
2022-12-11T03:30:19.944Z,8.48
2022-12-11T03:32:58.122Z,8.40
2022-12-11T03:35:35.954Z,9.23
2022-12-11T03:38:13.983Z,8.73
2022-12-11T03:40:49.995Z,7.90
2022-12-11T03:43:26.797Z,8.18
2022-12-11T03:46:01.829Z,8.32
2022-12-11T03:48:39.552Z,8.73
2022-12-11T03:51:13.200Z,8.23
2022-12-11T03:53:48.737Z,7.38
2022-12-11T03:56:23.663Z,7.82
2022-12-11T03:58:56.596Z,8.48
2022-12-11T04:01:29.897Z,8.45
2022-12-11T04:04:04.345Z,8.95
2022-12-11T04:06:37.759Z,7.35
2022-12-11T04:09:12.014Z,8.20
2022-12-11T04:11:44.937Z,7.82
2022-12-11T04:14:35.105Z,8.05
2022-12-11T04:17:09.550Z,8.23
2022-12-11T04:20:01.357Z,7.30
2022-12-11T04:22:51.661Z,6.45
2022-12-11T04:25:24.556Z,6.43
2022-12-11T04:27:57.739Z,7.20
2022-12-11T04:30:34.094Z,7.90
2022-12-11T04:33:07.722Z,7.13
2022-12-11T04:35:41.940Z,6.55
2022-12-11T04:38:15.933Z,7.22
2022-12-11T04:40:49.060Z,7.97
2022-12-11T04:43:22.090Z,8.23
2022-12-11T04:46:03.482Z,7.57
2022-12-11T04:48:36.764Z,7.45
2022-12-11T04:51:11.582Z,7.40
2022-12-11T04:53:44.495Z,7.35
2022-12-11T04:56:17.724Z,6.75
2022-12-11T04:58:50.677Z,7.13
2022-12-11T05:01:24.772Z,6.80
2022-12-11T05:04:00.326Z,7.00
2022-12-11T05:06:34.683Z,7.57
2022-12-11T05:09:09.170Z,7.53
2022-12-11T05:11:42.337Z,7.88
2022-12-11T05:14:15.417Z,8.35
2022-12-11T05:16:48.532Z,7.05
2022-12-11T05:19:21.321Z,7.25
2022-12-11T05:21:58.575Z,6.22
2022-12-11T05:24:31.871Z,6.70
2022-12-11T05:27:04.909Z,6.30
2022-12-11T05:29:38.130Z,6.22
2022-12-11T05:32:11.175Z,6.10
2022-12-11T05:34:44.315Z,6.20
2022-12-11T05:37:18.751Z,7.10
2022-12-11T05:39:51.841Z,6.43
2022-12-11T05:42:28.835Z,6.88
2022-12-11T05:45:02.111Z,6.45
2022-12-11T05:47:35.641Z,6.80
2022-12-11T05:50:10.980Z,6.78
2022-12-11T05:52:45.320Z,6.57
2022-12-11T05:55:18.582Z,7.53
2022-12-11T05:57:51.642Z,7.22
2022-12-11T06:00:24.736Z,5.88
2022-12-11T06:02:57.687Z,6.90
2022-12-11T06:05:30.679Z,6.78
2022-12-11T06:08:05.210Z,6.63
2022-12-11T06:10:38.310Z,6.45
2022-12-11T06:13:11.228Z,6.95
2022-12-11T06:15:44.613Z,6.65
2022-12-11T06:18:17.721Z,6.80
2022-12-11T06:20:50.785Z,6.07
2022-12-11T06:23:25.472Z,6.50
2022-12-11T06:25:59.785Z,7.00
2022-12-11T06:28:34.399Z,6.57
2022-12-11T06:31:07.864Z,6.22
2022-12-11T06:33:41.405Z,6.40
2022-12-11T06:36:16.563Z,7.00
2022-12-11T06:38:54.457Z,6.50
2022-12-11T06:41:27.582Z,6.80
2022-12-11T06:44:01.074Z,6.30
2022-12-11T06:46:33.945Z,5.68
2022-12-11T06:49:06.887Z,5.90
2022-12-11T06:51:40.633Z,6.30
2022-12-11T06:54:17.303Z,6.07
2022-12-11T06:56:51.902Z,6.05
2022-12-11T06:59:25.963Z,6.97
2022-12-11T07:01:58.820Z,6.47
2022-12-11T07:04:32.464Z,6.20
2022-12-11T07:07:05.337Z,6.25
2022-12-11T07:09:42.506Z,6.82
2022-12-11T07:12:15.655Z,7.25
2022-12-11T07:14:48.940Z,6.68
2022-12-11T07:17:21.944Z,7.35
2022-12-11T07:19:54.910Z,6.25
2022-12-11T07:22:27.875Z,6.70
2022-12-11T07:25:02.339Z,7.13
2022-12-11T07:27:35.284Z,6.82
2022-12-11T07:30:09.689Z,7.53
2022-12-11T07:32:43.326Z,8.90
2022-12-11T07:35:16.605Z,9.80
2022-12-11T07:37:49.439Z,10.05
2022-12-11T07:40:23.818Z,10.15
2022-12-11T07:42:56.866Z,9.38
2022-12-11T07:45:29.890Z,7.60
2022-12-11T07:48:03.300Z,8.32
2022-12-11T07:50:39.963Z,8.30
2022-12-11T07:53:12.924Z,6.35
2022-12-11T07:55:47.224Z,7.90
2022-12-11T07:58:21.413Z,7.10
2022-12-11T08:00:54.354Z,6.97
2022-12-11T08:03:27.296Z,7.75
2022-12-11T08:06:00.517Z,7.45
2022-12-11T08:08:33.901Z,7.18
2022-12-11T08:11:10.606Z,8.20
2022-12-11T08:13:44.892Z,7.78
2022-12-11T08:16:19.356Z,7.65
2022-12-11T08:18:52.807Z,7.70
2022-12-11T08:21:27.750Z,7.28
2022-12-11T08:24:00.542Z,7.97
2022-12-11T08:26:34.962Z,8.20
2022-12-11T08:29:07.885Z,7.63
2022-12-11T08:31:41.554Z,8.13
2022-12-11T08:34:14.412Z,6.78
2022-12-11T08:36:47.628Z,7.88
2022-12-11T08:39:20.599Z,7.18
2022-12-11T08:41:55.077Z,8.30
2022-12-11T08:44:28.455Z,6.97
2022-12-11T08:47:02.796Z,7.53
2022-12-11T08:49:35.682Z,7.28
2022-12-11T08:52:08.990Z,7.47
2022-12-11T08:54:41.907Z,8.95
2022-12-11T08:57:16.577Z,7.60
2022-12-11T08:59:49.607Z,8.30
2022-12-11T09:02:22.736Z,8.13
2022-12-11T09:04:55.893Z,8.43
2022-12-11T09:07:29.022Z,8.85
2022-12-11T09:10:02.096Z,8.75
2022-12-11T09:12:37.999Z,9.13
2022-12-11T09:15:11.875Z,8.98
2022-12-11T09:17:46.764Z,10.15
2022-12-11T09:20:19.776Z,9.13
2022-12-11T09:22:54.112Z,8.18
2022-12-11T09:25:27.514Z,9.63
2022-12-11T09:28:01.994Z,8.32
2022-12-11T09:30:35.258Z,8.23
2022-12-11T09:33:09.320Z,8.73
2022-12-11T09:35:42.254Z,8.73
2022-12-11T09:38:15.346Z,9.55
2022-12-11T09:40:48.226Z,8.63
2022-12-11T09:43:37.503Z,8.85
2022-12-11T09:46:20.753Z,8.43
2022-12-11T09:48:56.117Z,7.97
2022-12-11T09:51:34.429Z,8.63
2022-12-11T09:54:07.533Z,8.88
2022-12-11T09:56:49.176Z,8.93
2022-12-11T09:59:28.573Z,9.27
2022-12-11T10:02:12.659Z,9.63
2022-12-11T10:04:52.615Z,8.20
2022-12-11T10:07:37.457Z,9.82
2022-12-11T10:10:22.138Z,8.43
2022-12-11T10:13:06.674Z,9.15
2022-12-11T10:15:48.195Z,9.48
2022-12-11T10:18:25.186Z,7.97
2022-12-11T10:20:58.637Z,8.02
2022-12-11T10:23:37.396Z,7.88
2022-12-11T10:26:17.519Z,8.45
2022-12-11T10:28:50.957Z,8.07
2022-12-11T10:31:38.525Z,10.32
2022-12-11T10:34:14.798Z,7.85
2022-12-11T10:36:48.130Z,8.48
2022-12-11T10:39:23.078Z,8.70
2022-12-11T10:41:57.410Z,8.43
2022-12-11T10:44:32.093Z,8.38
2022-12-11T10:47:11.287Z,8.52
2022-12-11T10:49:53.132Z,8.02
2022-12-11T10:55:04.199Z,6.32
2022-12-11T10:57:40.069Z,7.20
2022-12-11T11:00:32.615Z,8.10
2022-12-11T11:03:21.241Z,7.88
2022-12-11T11:06:04.521Z,6.68
2022-12-11T11:08:44.217Z,7.43
2022-12-11T11:11:24.607Z,7.07
2022-12-11T11:14:09.296Z,7.68
2022-12-11T11:16:45.446Z,7.53
2022-12-11T11:19:23.559Z,7.72
2022-12-11T11:22:00.017Z,7.93
2022-12-11T11:24:37.908Z,9.50
2022-12-11T11:27:20.490Z,8.63
2022-12-11T11:29:56.795Z,7.80
2022-12-11T11:32:34.571Z,7.85
2022-12-11T11:35:18.820Z,7.57
2022-12-11T11:37:59.587Z,8.38
2022-12-11T11:40:38.144Z,8.52
2022-12-11T11:43:20.141Z,8.90
2022-12-11T11:45:57.312Z,8.50
2022-12-11T11:48:37.603Z,9.63
2022-12-11T11:51:17.980Z,8.75
2022-12-11T11:53:52.720Z,8.73
2022-12-11T11:56:28.502Z,8.98
2022-12-11T11:59:09.170Z,9.32
2022-12-11T12:01:43.150Z,9.65
2022-12-11T12:04:16.175Z,10.10
2022-12-11T12:07:05.244Z,10.20
2022-12-11T12:09:46.731Z,10.90
2022-12-11T12:12:34.005Z,10.32
2022-12-11T12:15:22.344Z,10.48
2022-12-11T12:17:57.703Z,9.55
2022-12-11T12:20:40.101Z,10.93
2022-12-11T12:23:36.959Z,10.90
2022-12-11T12:26:18.744Z,9.48
2022-12-11T12:29:02.988Z,11.52
2022-12-11T12:31:52.575Z,10.63
2022-12-11T12:34:37.487Z,11.45
2022-12-11T12:37:17.593Z,10.52
2022-12-11T12:40:03.292Z,10.57
2022-12-11T12:42:45.173Z,10.02
2022-12-11T12:47:57.416Z,10.30
2022-12-11T12:50:38.683Z,10.85
2022-12-11T12:53:18.071Z,11.80
2022-12-11T12:55:54.539Z,12.25
2022-12-11T12:58:32.363Z,12.13
2022-12-11T13:01:10.251Z,13.38
2022-12-11T13:04:03.616Z,12.57
2022-12-11T13:06:38.957Z,11.20
2022-12-11T13:09:17.477Z,11.15
2022-12-11T13:11:57.973Z,10.07
2022-12-11T13:14:34.238Z,10.50
2022-12-11T13:17:27.604Z,10.88
2022-12-11T13:20:16.346Z,10.38
2022-12-11T13:22:57.037Z,9.98
2022-12-11T13:25:34.386Z,10.20
2022-12-11T13:28:27.451Z,11.35
2022-12-11T13:31:07.433Z,10.93
2022-12-11T13:33:45.856Z,11.93
2022-12-11T13:36:33.807Z,11.35
2022-12-11T13:39:11.044Z,11.18
2022-12-11T13:41:47.266Z,10.75
2022-12-11T13:44:25.683Z,10.70
2022-12-11T13:47:03.719Z,10.93
2022-12-11T13:49:38.649Z,11.02
2022-12-11T13:52:19.641Z,11.25
2022-12-11T13:54:56.121Z,10.20
2022-12-11T13:57:33.597Z,9.73
2022-12-11T14:00:22.464Z,9.32
2022-12-11T14:03:00.401Z,10.70
2022-12-11T14:05:35.075Z,10.32
2022-12-11T14:08:11.015Z,11.02
2022-12-11T14:10:52.124Z,9.85
2022-12-11T14:13:29.356Z,10.95
2022-12-11T14:16:05.311Z,11.27
2022-12-11T14:18:38.953Z,10.50
2022-12-11T14:21:20.705Z,10.95
2022-12-11T14:26:29.396Z,9.80
2022-12-11T14:29:02.873Z,10.38
2022-12-11T14:31:42.100Z,9.95
2022-12-11T14:34:19.062Z,10.90
2022-12-11T14:36:52.575Z,10.77
2022-12-11T14:39:29.872Z,10.57
2022-12-11T14:42:10.270Z,11.45
2022-12-11T14:44:49.758Z,10.10
2022-12-11T14:47:29.466Z,10.10
2022-12-11T14:50:08.101Z,10.52
2022-12-11T14:52:45.740Z,8.88
2022-12-11T14:55:24.183Z,8.43
2022-12-11T14:58:00.167Z,9.40
2022-12-11T15:00:36.673Z,9.05
2022-12-11T15:03:24.768Z,9.60
2022-12-11T15:05:59.702Z,10.05
2022-12-11T15:08:34.476Z,10.35
2022-12-11T15:11:09.783Z,9.85
2022-12-11T15:13:53.475Z,9.50
2022-12-11T15:16:29.541Z,9.80
2022-12-11T15:19:03.989Z,9.18
2022-12-11T15:21:38.773Z,9.60
2022-12-11T15:24:27.373Z,8.93
2022-12-11T15:27:02.058Z,9.82
2022-12-11T15:29:37.363Z,9.52
2022-12-11T15:32:19.619Z,9.70
2022-12-11T15:34:56.105Z,9.55
2022-12-11T15:37:31.083Z,10.13
2022-12-11T15:40:06.135Z,8.90
2022-12-11T15:42:41.638Z,9.38
2022-12-11T15:45:19.652Z,9.45
2022-12-11T15:47:53.446Z,8.45
2022-12-11T15:50:29.814Z,9.23
2022-12-11T15:53:03.106Z,9.75
2022-12-11T15:55:36.163Z,9.98
2022-12-11T15:58:14.891Z,10.80
2022-12-11T16:00:48.177Z,10.18
2022-12-11T16:03:24.290Z,9.65
2022-12-11T16:05:59.197Z,9.75
2022-12-11T16:08:32.539Z,9.93
2022-12-11T16:11:05.820Z,9.60
2022-12-11T16:13:41.390Z,10.57
2022-12-11T16:16:14.399Z,10.18
2022-12-11T16:18:47.329Z,9.63
2022-12-11T16:21:21.924Z,10.10
2022-12-11T16:23:54.925Z,9.32
2022-12-11T16:26:28.648Z,9.80
2022-12-11T16:29:02.257Z,9.73
2022-12-11T16:31:35.487Z,8.63
2022-12-11T16:34:08.572Z,8.80
2022-12-11T16:36:43.059Z,9.32
2022-12-11T16:39:16.164Z,8.90
2022-12-11T16:41:49.178Z,9.55
2022-12-11T16:44:24.916Z,8.88
2022-12-11T16:46:59.142Z,9.45
2022-12-11T16:49:33.869Z,9.10
2022-12-11T16:52:09.002Z,8.90
2022-12-11T16:54:42.481Z,9.07
2022-12-11T16:57:15.644Z,8.60
2022-12-11T16:59:53.628Z,8.98
2022-12-11T17:02:26.569Z,9.68
2022-12-11T17:05:00.117Z,9.18
2022-12-11T17:07:35.235Z,9.48
2022-12-11T17:10:09.942Z,9.85
2022-12-11T17:12:42.907Z,9.90
2022-12-11T17:15:15.732Z,11.70
2022-12-11T17:17:48.846Z,10.90
2022-12-11T17:20:22.162Z,10.73
2022-12-11T17:22:58.087Z,11.38
2022-12-11T17:25:31.035Z,10.60
2022-12-11T17:28:05.168Z,9.80
2022-12-11T17:30:43.671Z,9.35
2022-12-11T17:33:17.555Z,9.40
2022-12-11T17:35:53.103Z,9.23
2022-12-11T17:38:27.857Z,9.80
2022-12-11T17:41:01.141Z,9.38
2022-12-11T17:43:34.523Z,9.48
2022-12-11T17:46:07.467Z,8.93
2022-12-11T17:48:41.251Z,9.77
2022-12-11T17:51:21.128Z,9.38
2022-12-11T17:53:57.300Z,9.85
2022-12-11T17:56:30.252Z,10.32
2022-12-11T17:59:03.638Z,9.82
2022-12-11T18:01:36.668Z,8.98
2022-12-11T18:04:10.774Z,10.02
2022-12-11T18:06:44.068Z,10.57
2022-12-11T18:09:18.275Z,10.15
2022-12-11T18:11:53.889Z,11.05
2022-12-11T18:14:27.033Z,11.30
2022-12-11T18:17:00.038Z,11.35
2022-12-11T18:19:33.201Z,11.00
2022-12-11T18:22:06.392Z,10.45
2022-12-11T18:24:40.923Z,9.40
2022-12-11T18:27:15.262Z,9.95
2022-12-11T18:29:48.245Z,10.30
2022-12-11T18:32:21.373Z,9.15
2022-12-11T18:34:54.492Z,9.07
2022-12-11T18:37:29.711Z,9.80
2022-12-11T18:40:08.419Z,8.55
2022-12-11T18:42:41.722Z,9.55
2022-12-11T18:45:15.296Z,8.52
2022-12-11T18:47:50.948Z,8.23
2022-12-11T18:50:24.185Z,8.63
2022-12-11T18:52:57.683Z,9.73
2022-12-11T18:55:35.592Z,9.02
2022-12-11T18:58:08.492Z,8.90
2022-12-11T19:00:45.323Z,9.10
2022-12-11T19:03:18.839Z,8.25
2022-12-11T19:05:51.827Z,9.77
2022-12-11T19:08:25.217Z,9.40
2022-12-11T19:10:59.920Z,8.82
2022-12-11T19:13:34.577Z,8.73
2022-12-11T19:16:08.225Z,10.00
2022-12-11T19:18:41.621Z,9.13
2022-12-11T19:21:15.681Z,9.88
2022-12-11T19:23:50.218Z,9.88
2022-12-11T19:26:27.196Z,9.02
2022-12-11T19:29:01.142Z,10.07
2022-12-11T19:31:35.044Z,9.40
2022-12-11T19:34:08.395Z,8.95
2022-12-11T19:36:41.764Z,9.82
2022-12-11T19:39:16.500Z,9.18
2022-12-11T19:41:50.843Z,9.45
2022-12-11T19:44:24.016Z,9.07
2022-12-11T19:46:57.242Z,8.85
2022-12-11T19:49:30.371Z,8.48
2022-12-11T19:52:04.777Z,8.68
2022-12-11T19:54:37.925Z,8.52
2022-12-11T19:57:12.251Z,8.90
2022-12-11T19:59:55.388Z,9.80
2022-12-11T20:02:30.041Z,10.55
2022-12-11T20:05:03.623Z,9.85
2022-12-11T20:07:36.641Z,8.40
2022-12-11T20:10:10.984Z,8.40
2022-12-11T20:12:45.505Z,8.90
2022-12-11T20:15:20.510Z,8.95
2022-12-11T20:17:54.498Z,9.50
2022-12-11T20:20:34.841Z,8.80
2022-12-11T20:23:32.917Z,8.82
2022-12-11T20:26:09.103Z,8.27
2022-12-11T20:28:43.492Z,8.55
2022-12-11T20:31:20.534Z,8.10
2022-12-11T20:33:57.154Z,8.45
2022-12-11T20:36:31.380Z,7.93
2022-12-11T20:39:05.068Z,8.52
2022-12-11T20:41:39.618Z,8.38
2022-12-11T20:44:13.960Z,10.02
2022-12-11T20:46:47.465Z,9.65
2022-12-11T20:49:20.543Z,8.70
2022-12-11T20:51:54.147Z,8.75
2022-12-11T20:54:28.391Z,7.60
2022-12-11T20:57:03.620Z,8.35
2022-12-11T20:59:39.263Z,8.40
2022-12-11T21:02:12.787Z,8.13
2022-12-11T21:04:46.621Z,8.73
2022-12-11T21:07:21.172Z,8.35
2022-12-11T21:09:54.640Z,8.88
2022-12-11T21:12:31.693Z,7.90
2022-12-11T21:15:08.193Z,7.82
2022-12-11T21:17:41.807Z,7.45
2022-12-11T21:20:15.122Z,7.80
2022-12-11T21:22:49.591Z,6.88
2022-12-11T21:25:23.117Z,7.05
2022-12-11T21:27:56.353Z,7.97
2022-12-11T21:30:30.881Z,7.40
2022-12-11T21:33:05.985Z,7.82
2022-12-11T21:35:40.645Z,7.25
2022-12-11T21:38:13.923Z,7.03
2022-12-11T21:40:47.127Z,7.25
2022-12-11T21:43:23.864Z,7.53
2022-12-11T21:46:05.061Z,6.75
2022-12-11T21:48:38.770Z,8.00
2022-12-11T21:51:19.174Z,7.35
2022-12-11T21:53:52.389Z,7.07
2022-12-11T21:56:28.197Z,6.95
2022-12-11T21:59:01.716Z,7.32
2022-12-11T22:01:38.359Z,6.55
2022-12-11T22:04:12.171Z,6.63
2022-12-11T22:06:47.260Z,7.13
2022-12-11T22:09:20.572Z,7.32
2022-12-11T22:11:58.375Z,6.68
2022-12-11T22:14:32.003Z,7.25
2022-12-11T22:17:06.367Z,7.15
2022-12-11T22:19:40.253Z,7.65
2022-12-11T22:22:13.831Z,7.53
2022-12-11T22:24:47.409Z,7.57
2022-12-11T22:27:23.674Z,7.43
2022-12-11T22:29:57.221Z,7.63
2022-12-11T22:32:31.631Z,8.05
2022-12-11T22:35:05.177Z,7.93
2022-12-11T22:37:38.491Z,6.72
2022-12-11T22:40:11.949Z,7.55
2022-12-11T22:42:45.154Z,6.93
2022-12-11T22:45:18.173Z,8.25
2022-12-11T22:47:53.040Z,8.18
2022-12-11T22:50:26.082Z,8.15
2022-12-11T22:53:00.368Z,8.45
2022-12-11T22:55:34.113Z,8.40
2022-12-11T22:58:07.075Z,8.55
2022-12-11T23:00:41.369Z,8.95
2022-12-11T23:03:18.495Z,9.77
2022-12-11T23:05:51.712Z,10.48
2022-12-11T23:08:24.828Z,8.82
2022-12-11T23:10:57.964Z,9.40
2022-12-11T23:13:34.782Z,9.32
2022-12-11T23:16:09.043Z,8.82
2022-12-11T23:18:44.491Z,8.40
2022-12-11T23:21:17.550Z,7.93
2022-12-11T23:23:53.780Z,7.80
2022-12-11T23:26:30.079Z,7.20
2022-12-11T23:29:07.375Z,7.25
2022-12-11T23:31:40.504Z,6.13
2022-12-11T23:34:17.274Z,6.50
2022-12-11T23:36:51.357Z,6.43
2022-12-11T23:39:24.966Z,7.20
2022-12-11T23:41:58.247Z,6.70
2022-12-11T23:44:31.221Z,7.05
2022-12-11T23:47:04.395Z,6.13
2022-12-11T23:49:39.044Z,6.88
2022-12-11T23:52:12.672Z,6.32
2022-12-11T23:54:45.526Z,6.60
2022-12-11T23:57:22.636Z,6.53
2022-12-11T23:59:56.027Z,6.63
